Montezuma, NM (87731)

10:38 PM MST on March 02, 2015 (GMT -0700)
North 8th. Street Extension | Change Station
CLOSE
Current Station
Personal Weather Station
Location: Las Vegas, NM
Elevation: 6526 ft
Nearby Weather Stations

Elev 6526 ft 35.61 °N, 105.23 °W | Updated 2 seconds ago

Mostly Cloudy
Mostly Cloudy
38.3 °F
Feels Like 31 °F
N
10.5
Wind Variable Wind from East
Gusts 26.6 mph

Today
High -- | Low -- °F
--% Chance of Precip.
Yesterday
High -- | Low -- °F
Precip. -- in
6:29 AM 5:57 PM
Waxing Gibbous, 94% visible
Pressure 29.83 in
Visibility 10.0 miles
Clouds Few 2300 ft
Scattered Clouds 3700 ft
Mostly Cloudy 4700 ft
Windchill 31 °F
Dew Point 36 °F
Humidity 90%
Rainfall 0.00 in
Snow Depth Not available.
UV 0.0 out of 12
Pollen 6.90 out of 12
Air Quality Not available.
Flu Activity Not available.
SPECI KLVS 030513Z AUTO 20018KT 10SM FEW023 SCT037 BKN047 02/02 A2983 RMK AO2 PK WND 20031/0454 FZRAE0459 P0000 I1000 T00170017

More Conditions Fewer Conditions

Pressure 29.83 in
Visibility 10.0 miles
Clouds Few 2300 ft
Scattered Clouds 3700 ft
Mostly Cloudy 4700 ft
Windchill 31 °F
Dew Point 36 °F
Humidity 90%
Rainfall 0.00 in
Snow Depth Not available.
UV 0.0 out of 12
Pollen 6.90 out of 12
Air Quality Not available.
Flu Activity Not available.
SPECI KLVS 030513Z AUTO 20018KT 10SM FEW023 SCT037 BKN047 02/02 A2983 RMK AO2 PK WND 20031/0454 FZRAE0459 P0000 I1000 T00170017

More Conditions Fewer Conditions

Nowcast | as of 10:32 PM MST on March 2, 2015

Through 1 am MST...patches of light rain will persist across eastern portions of New Mexico ahead of an eastward advancing cold front. Rain amounts will generally be a few hundredths of an inch or less. In addition...windy conditions will continue with occasional gusts to between 35 and 45 mph...especially along The Highlands and near the Raton Mesa.

×

10-Day Weather Forecast

Almanac

Astronomy

Mar. 02, 2015 Rise Set
Actual Time
Civil Twilight
Nautical Twilight
Astronomical Twilight
Moon
Length of Visible Light
Length of Day
Tomorrow will be .
, % of the Moon is Illuminated

Today's Extremes

State Highs State Lows

Community

WunderPhotos

Upload Photos

1,802,066 photos uploaded!

WunderBlogs® & News

Nearby

Air Quality

  Air Quality AQ Index Pollutant
Not available.

Snow Depth

Station Depth Elevation

Earthquake Activity

City Distance Mag. Time & Date
Minimum magnitude displayed is 2.5.

Coastal Water Temperatures

Place Temperature

Nearby Weather Stations